sensor_id;sensor_type;location;lat;lon;timestamp;temperature;humidity
24408;DHT22;12542;50.924;4.516;2023-02-03T00:02:04;11.80;99.90
24408;DHT22;12542;50.924;4.516;2023-02-03T00:04:29;11.60;99.90
24408;DHT22;12542;50.924;4.516;2023-02-03T00:06:55;11.60;99.90
24408;DHT22;12542;50.924;4.516;2023-02-03T00:09:21;11.70;99.90
24408;DHT22;12542;50.924;4.516;2023-02-03T00:11:47;11.80;99.90
24408;DHT22;12542;50.924;4.516;2023-02-03T00:14:12;11.80;99.90
24408;DHT22;12542;50.924;4.516;2023-02-03T00:16:38;11.80;99.90
24408;DHT22;12542;50.924;4.516;2023-02-03T00:19:03;11.80;99.90
24408;DHT22;12542;50.924;4.516;2023-02-03T00:21:29;11.80;99.90
24408;DHT22;12542;50.924;4.516;2023-02-03T00:23:55;11.80;99.90
24408;DHT22;12542;50.924;4.516;2023-02-03T00:26:21;11.70;99.90
24408;DHT22;12542;50.924;4.516;2023-02-03T00:28:48;11.70;99.90
24408;DHT22;12542;50.924;4.516;2023-02-03T00:31:22;11.70;99.90
24408;DHT22;12542;50.924;4.516;2023-02-03T00:33:53;11.70;99.90
24408;DHT22;12542;50.924;4.516;2023-02-03T00:36:19;11.70;99.90
24408;DHT22;12542;50.924;4.516;2023-02-03T00:38:45;11.70;99.90
24408;DHT22;12542;50.924;4.516;2023-02-03T00:41:10;11.70;99.90
24408;DHT22;12542;50.924;4.516;2023-02-03T00:43:36;11.70;99.90
24408;DHT22;12542;50.924;4.516;2023-02-03T00:46:02;11.60;99.90
24408;DHT22;12542;50.924;4.516;2023-02-03T00:48:28;11.60;99.90
24408;DHT22;12542;50.924;4.516;2023-02-03T00:50:54;11.60;99.90
24408;DHT22;12542;50.924;4.516;2023-02-03T00:53:19;11.60;99.90
24408;DHT22;12542;50.924;4.516;2023-02-03T00:55:45;11.50;99.90
24408;DHT22;12542;50.924;4.516;2023-02-03T00:58:11;11.50;99.90
24408;DHT22;12542;50.924;4.516;2023-02-03T01:00:37;11.70;99.90
24408;DHT22;12542;50.924;4.516;2023-02-03T01:03:02;11.60;99.90
24408;DHT22;12542;50.924;4.516;2023-02-03T01:05:30;11.80;99.90
24408;DHT22;12542;50.924;4.516;2023-02-03T01:07:56;11.70;99.90
24408;DHT22;12542;50.924;4.516;2023-02-03T01:10:21;11.50;99.90
24408;DHT22;12542;50.924;4.516;2023-02-03T01:12:47;11.50;99.90
24408;DHT22;12542;50.924;4.516;2023-02-03T01:15:13;11.50;99.90
24408;DHT22;12542;50.924;4.516;2023-02-03T01:17:38;11.50;99.90
24408;DHT22;12542;50.924;4.516;2023-02-03T01:20:04;11.40;99.90
24408;DHT22;12542;50.924;4.516;2023-02-03T01:22:31;11.40;99.90
24408;DHT22;12542;50.924;4.516;2023-02-03T01:24:56;11.40;99.90
24408;DHT22;12542;50.924;4.516;2023-02-03T01:27:22;11.40;99.90
24408;DHT22;12542;50.924;4.516;2023-02-03T01:29:48;11.50;99.90
24408;DHT22;12542;50.924;4.516;2023-02-03T01:32:13;11.50;99.90
24408;DHT22;12542;50.924;4.516;2023-02-03T01:34:39;11.70;99.90
24408;DHT22;12542;50.924;4.516;2023-02-03T01:37:05;11.70;99.90
24408;DHT22;12542;50.924;4.516;2023-02-03T01:39:30;11.70;99.90
24408;DHT22;12542;50.924;4.516;2023-02-03T01:41:56;11.60;99.90
24408;DHT22;12542;50.924;4.516;2023-02-03T01:52:24;11.40;99.90
24408;DHT22;12542;50.924;4.516;2023-02-03T01:54:51;11.50;99.90
24408;DHT22;12542;50.924;4.516;2023-02-03T01:57:26;11.50;99.90
24408;DHT22;12542;50.924;4.516;2023-02-03T01:59:55;11.40;99.90
24408;DHT22;12542;50.924;4.516;2023-02-03T02:02:23;11.30;99.90
24408;DHT22;12542;50.924;4.516;2023-02-03T02:05:00;11.40;99.90
24408;DHT22;12542;50.924;4.516;2023-02-03T02:07:28;11.40;99.90
24408;DHT22;12542;50.924;4.516;2023-02-03T02:09:54;11.50;99.90
24408;DHT22;12542;50.924;4.516;2023-02-03T02:12:21;11.50;99.90
24408;DHT22;12542;50.924;4.516;2023-02-03T02:14:47;11.40;99.90
24408;DHT22;12542;50.924;4.516;2023-02-03T02:22:54;11.40;99.90
24408;DHT22;12542;50.924;4.516;2023-02-03T02:41:26;11.30;99.90
24408;DHT22;12542;50.924;4.516;2023-02-03T02:46:44;11.40;99.90
24408;DHT22;12542;50.924;4.516;2023-02-03T02:51:46;11.30;99.90
24408;DHT22;12542;50.924;4.516;2023-02-03T02:54:16;11.40;99.90
24408;DHT22;12542;50.924;4.516;2023-02-03T02:56:45;11.40;99.90
24408;DHT22;12542;50.924;4.516;2023-02-03T02:59:13;11.30;99.90
24408;DHT22;12542;50.924;4.516;2023-02-03T03:01:39;11.30;99.90
24408;DHT22;12542;50.924;4.516;2023-02-03T03:04:06;11.30;99.90
24408;DHT22;12542;50.924;4.516;2023-02-03T03:06:41;11.40;99.90
24408;DHT22;12542;50.924;4.516;2023-02-03T03:11:40;11.40;99.90
24408;DHT22;12542;50.924;4.516;2023-02-03T03:14:10;11.40;99.90
24408;DHT22;12542;50.924;4.516;2023-02-03T03:16:48;11.40;99.90
24408;DHT22;12542;50.924;4.516;2023-02-03T03:19:20;11.40;99.90
24408;DHT22;12542;50.924;4.516;2023-02-03T03:21:51;11.40;99.90
24408;DHT22;12542;50.924;4.516;2023-02-03T03:24:27;11.40;99.90
24408;DHT22;12542;50.924;4.516;2023-02-03T03:26:57;11.30;99.90
24408;DHT22;12542;50.924;4.516;2023-02-03T03:29:30;11.30;99.90
24408;DHT22;12542;50.924;4.516;2023-02-03T03:32:00;11.30;99.90
24408;DHT22;12542;50.924;4.516;2023-02-03T03:34:27;11.30;99.90
24408;DHT22;12542;50.924;4.516;2023-02-03T03:37:19;11.20;99.90
24408;DHT22;12542;50.924;4.516;2023-02-03T03:39:59;11.30;99.90
24408;DHT22;12542;50.924;4.516;2023-02-03T03:42:39;11.40;99.90
24408;DHT22;12542;50.924;4.516;2023-02-03T03:47:41;11.50;99.90
24408;DHT22;12542;50.924;4.516;2023-02-03T03:50:11;11.50;99.90
24408;DHT22;12542;50.924;4.516;2023-02-03T03:52:39;11.40;99.90
24408;DHT22;12542;50.924;4.516;2023-02-03T03:55:08;11.30;99.90
24408;DHT22;12542;50.924;4.516;2023-02-03T03:57:44;11.50;99.90
24408;DHT22;12542;50.924;4.516;2023-02-03T04:00:13;11.50;99.90
24408;DHT22;12542;50.924;4.516;2023-02-03T04:02:41;11.50;99.90
24408;DHT22;12542;50.924;4.516;2023-02-03T04:05:10;11.50;99.90
24408;DHT22;12542;50.924;4.516;2023-02-03T04:07:38;11.40;99.90
24408;DHT22;12542;50.924;4.516;2023-02-03T04:12:47;11.30;99.90
24408;DHT22;12542;50.924;4.516;2023-02-03T04:15:13;11.30;99.90
24408;DHT22;12542;50.924;4.516;2023-02-03T04:17:39;11.30;99.90
24408;DHT22;12542;50.924;4.516;2023-02-03T04:20:05;11.30;99.90
24408;DHT22;12542;50.924;4.516;2023-02-03T04:22:30;11.40;99.90
24408;DHT22;12542;50.924;4.516;2023-02-03T04:24:56;11.30;99.90
24408;DHT22;12542;50.924;4.516;2023-02-03T04:27:25;11.40;99.90
24408;DHT22;12542;50.924;4.516;2023-02-03T04:29:51;11.40;99.90
24408;DHT22;12542;50.924;4.516;2023-02-03T04:32:17;11.30;99.90
24408;DHT22;12542;50.924;4.516;2023-02-03T04:34:43;11.30;99.90
24408;DHT22;12542;50.924;4.516;2023-02-03T04:37:09;11.30;99.90
24408;DHT22;12542;50.924;4.516;2023-02-03T04:39:35;11.30;99.90
24408;DHT22;12542;50.924;4.516;2023-02-03T04:42:01;11.40;99.90
24408;DHT22;12542;50.924;4.516;2023-02-03T04:44:27;11.30;99.90
24408;DHT22;12542;50.924;4.516;2023-02-03T04:46:52;11.40;99.90
24408;DHT22;12542;50.924;4.516;2023-02-03T04:49:18;11.30;99.90
24408;DHT22;12542;50.924;4.516;2023-02-03T04:51:44;11.40;99.90
24408;DHT22;12542;50.924;4.516;2023-02-03T04:54:10;11.30;99.90
24408;DHT22;12542;50.924;4.516;2023-02-03T04:56:36;11.40;99.90
24408;DHT22;12542;50.924;4.516;2023-02-03T04:59:02;11.30;99.90
24408;DHT22;12542;50.924;4.516;2023-02-03T05:01:28;11.40;99.90
24408;DHT22;12542;50.924;4.516;2023-02-03T05:03:53;11.40;99.90
24408;DHT22;12542;50.924;4.516;2023-02-03T05:06:27;11.40;99.90
24408;DHT22;12542;50.924;4.516;2023-02-03T05:08:57;11.40;99.90
24408;DHT22;12542;50.924;4.516;2023-02-03T05:11:23;11.40;99.90
24408;DHT22;12542;50.924;4.516;2023-02-03T05:13:49;11.20;99.90
24408;DHT22;12542;50.924;4.516;2023-02-03T05:16:17;11.00;99.90
24408;DHT22;12542;50.924;4.516;2023-02-03T05:18:43;11.10;99.90
24408;DHT22;12542;50.924;4.516;2023-02-03T05:21:09;11.00;99.90
24408;DHT22;12542;50.924;4.516;2023-02-03T05:23:34;11.10;99.90
24408;DHT22;12542;50.924;4.516;2023-02-03T05:26:00;11.20;99.90
24408;DHT22;12542;50.924;4.516;2023-02-03T05:28:26;11.40;99.90
24408;DHT22;12542;50.924;4.516;2023-02-03T05:30:51;11.30;99.90
24408;DHT22;12542;50.924;4.516;2023-02-03T05:33:17;11.40;99.90
24408;DHT22;12542;50.924;4.516;2023-02-03T05:35:43;11.60;99.90
24408;DHT22;12542;50.924;4.516;2023-02-03T05:38:09;11.50;99.90
24408;DHT22;12542;50.924;4.516;2023-02-03T05:40:34;11.60;99.90
24408;DHT22;12542;50.924;4.516;2023-02-03T05:43:21;11.60;99.90
24408;DHT22;12542;50.924;4.516;2023-02-03T05:45:46;11.50;99.90
24408;DHT22;12542;50.924;4.516;2023-02-03T05:48:12;11.50;99.90
24408;DHT22;12542;50.924;4.516;2023-02-03T05:50:38;11.60;99.90
24408;DHT22;12542;50.924;4.516;2023-02-03T05:53:04;11.60;99.90
24408;DHT22;12542;50.924;4.516;2023-02-03T05:55:30;11.50;99.90
24408;DHT22;12542;50.924;4.516;2023-02-03T05:57:56;11.60;99.90
24408;DHT22;12542;50.924;4.516;2023-02-03T06:00:24;11.40;99.90
24408;DHT22;12542;50.924;4.516;2023-02-03T06:02:55;11.40;99.90
24408;DHT22;12542;50.924;4.516;2023-02-03T06:05:22;11.60;99.90
24408;DHT22;12542;50.924;4.516;2023-02-03T06:07:48;11.40;99.90
24408;DHT22;12542;50.924;4.516;2023-02-03T06:10:14;11.50;99.90
24408;DHT22;12542;50.924;4.516;2023-02-03T06:12:41;11.30;99.90
24408;DHT22;12542;50.924;4.516;2023-02-03T06:15:09;11.30;99.90
24408;DHT22;12542;50.924;4.516;2023-02-03T06:17:37;11.30;99.90
24408;DHT22;12542;50.924;4.516;2023-02-03T06:20:06;11.20;99.90
24408;DHT22;12542;50.924;4.516;2023-02-03T06:22:32;11.20;99.90
24408;DHT22;12542;50.924;4.516;2023-02-03T06:24:58;11.30;99.90
24408;DHT22;12542;50.924;4.516;2023-02-03T06:27:24;11.40;99.90
24408;DHT22;12542;50.924;4.516;2023-02-03T06:29:50;11.30;99.90
24408;DHT22;12542;50.924;4.516;2023-02-03T06:32:15;11.40;99.90
24408;DHT22;12542;50.924;4.516;2023-02-03T06:34:41;11.50;99.90
24408;DHT22;12542;50.924;4.516;2023-02-03T06:37:07;11.40;99.90
24408;DHT22;12542;50.924;4.516;2023-02-03T06:39:32;11.50;99.90
24408;DHT22;12542;50.924;4.516;2023-02-03T06:41:58;11.50;99.90
24408;DHT22;12542;50.924;4.516;2023-02-03T06:44:24;11.40;99.90
24408;DHT22;12542;50.924;4.516;2023-02-03T06:46:51;11.40;99.90
24408;DHT22;12542;50.924;4.516;2023-02-03T06:49:17;11.30;99.90
24408;DHT22;12542;50.924;4.516;2023-02-03T06:51:43;11.40;99.90
24408;DHT22;12542;50.924;4.516;2023-02-03T06:54:10;11.40;99.90
24408;DHT22;12542;50.924;4.516;2023-02-03T06:56:38;11.30;99.90
24408;DHT22;12542;50.924;4.516;2023-02-03T06:59:05;11.20;99.90
24408;DHT22;12542;50.924;4.516;2023-02-03T07:01:30;11.10;99.90
24408;DHT22;12542;50.924;4.516;2023-02-03T07:03:57;11.10;99.90
24408;DHT22;12542;50.924;4.516;2023-02-03T07:06:25;11.10;99.90
24408;DHT22;12542;50.924;4.516;2023-02-03T07:08:54;11.10;99.90
24408;DHT22;12542;50.924;4.516;2023-02-03T07:11:20;11.20;99.90
24408;DHT22;12542;50.924;4.516;2023-02-03T07:13:46;11.30;99.90
24408;DHT22;12542;50.924;4.516;2023-02-03T07:16:12;11.30;99.90
24408;DHT22;12542;50.924;4.516;2023-02-03T07:18:38;11.30;99.90
24408;DHT22;12542;50.924;4.516;2023-02-03T07:21:05;11.30;99.90
24408;DHT22;12542;50.924;4.516;2023-02-03T07:23:31;11.30;99.90
24408;DHT22;12542;50.924;4.516;2023-02-03T07:26:01;11.30;99.90
24408;DHT22;12542;50.924;4.516;2023-02-03T07:28:32;11.30;99.90
24408;DHT22;12542;50.924;4.516;2023-02-03T07:30:58;11.30;99.90
24408;DHT22;12542;50.924;4.516;2023-02-03T07:33:25;11.40;99.90
24408;DHT22;12542;50.924;4.516;2023-02-03T07:35:58;11.50;99.90
24408;DHT22;12542;50.924;4.516;2023-02-03T07:38:26;11.40;99.90
24408;DHT22;12542;50.924;4.516;2023-02-03T07:40:52;11.40;99.90
24408;DHT22;12542;50.924;4.516;2023-02-03T07:43:18;11.40;99.90
24408;DHT22;12542;50.924;4.516;2023-02-03T07:45:44;11.40;99.90
24408;DHT22;12542;50.924;4.516;2023-02-03T07:48:10;11.40;99.90
24408;DHT22;12542;50.924;4.516;2023-02-03T07:50:38;11.40;99.90
24408;DHT22;12542;50.924;4.516;2023-02-03T07:53:04;11.40;99.90
24408;DHT22;12542;50.924;4.516;2023-02-03T07:55:30;11.50;99.90
24408;DHT22;12542;50.924;4.516;2023-02-03T07:57:57;11.40;99.90
24408;DHT22;12542;50.924;4.516;2023-02-03T08:00:23;11.50;99.90
24408;DHT22;12542;50.924;4.516;2023-02-03T08:02:49;11.40;99.90
24408;DHT22;12542;50.924;4.516;2023-02-03T08:05:15;11.40;99.90
24408;DHT22;12542;50.924;4.516;2023-02-03T08:07:41;11.40;99.90
24408;DHT22;12542;50.924;4.516;2023-02-03T08:10:09;11.40;99.90
24408;DHT22;12542;50.924;4.516;2023-02-03T08:12:35;11.60;99.90
24408;DHT22;12542;50.924;4.516;2023-02-03T08:15:01;11.60;99.90
24408;DHT22;12542;50.924;4.516;2023-02-03T08:17:26;11.60;99.90
24408;DHT22;12542;50.924;4.516;2023-02-03T08:19:52;11.60;99.90
24408;DHT22;12542;50.924;4.516;2023-02-03T08:22:20;11.60;99.90
24408;DHT22;12542;50.924;4.516;2023-02-03T08:24:48;11.70;99.90
24408;DHT22;12542;50.924;4.516;2023-02-03T08:27:17;11.80;99.90
24408;DHT22;12542;50.924;4.516;2023-02-03T08:29:43;11.80;99.90
24408;DHT22;12542;50.924;4.516;2023-02-03T08:32:10;11.80;99.90
24408;DHT22;12542;50.924;4.516;2023-02-03T08:34:36;11.80;99.90
24408;DHT22;12542;50.924;4.516;2023-02-03T08:37:03;11.70;99.90
24408;DHT22;12542;50.924;4.516;2023-02-03T08:39:28;11.70;99.90
24408;DHT22;12542;50.924;4.516;2023-02-03T08:41:54;11.70;99.90
24408;DHT22;12542;50.924;4.516;2023-02-03T08:44:20;11.80;99.90
24408;DHT22;12542;50.924;4.516;2023-02-03T08:46:51;11.80;99.90
24408;DHT22;12542;50.924;4.516;2023-02-03T08:49:18;11.80;99.90
24408;DHT22;12542;50.924;4.516;2023-02-03T08:51:48;11.70;99.90
24408;DHT22;12542;50.924;4.516;2023-02-03T08:54:14;11.80;99.90
24408;DHT22;12542;50.924;4.516;2023-02-03T08:56:40;11.80;99.90
24408;DHT22;12542;50.924;4.516;2023-02-03T08:59:06;11.80;99.90
24408;DHT22;12542;50.924;4.516;2023-02-03T09:01:32;11.80;99.90
24408;DHT22;12542;50.924;4.516;2023-02-03T09:03:58;11.90;99.90
24408;DHT22;12542;50.924;4.516;2023-02-03T09:06:26;11.90;99.90
24408;DHT22;12542;50.924;4.516;2023-02-03T09:08:54;11.90;99.90
24408;DHT22;12542;50.924;4.516;2023-02-03T09:11:19;11.90;99.90
24408;DHT22;12542;50.924;4.516;2023-02-03T09:13:47;11.90;99.90
24408;DHT22;12542;50.924;4.516;2023-02-03T09:16:15;11.80;99.90
24408;DHT22;12542;50.924;4.516;2023-02-03T09:18:44;11.70;99.90
24408;DHT22;12542;50.924;4.516;2023-02-03T09:21:11;11.70;99.90
24408;DHT22;12542;50.924;4.516;2023-02-03T09:23:37;11.80;99.90
24408;DHT22;12542;50.924;4.516;2023-02-03T09:26:07;11.70;99.90
24408;DHT22;12542;50.924;4.516;2023-02-03T09:28:34;11.70;99.90
24408;DHT22;12542;50.924;4.516;2023-02-03T09:31:06;11.80;99.90
24408;DHT22;12542;50.924;4.516;2023-02-03T09:33:32;11.70;99.90
24408;DHT22;12542;50.924;4.516;2023-02-03T09:35:58;11.80;99.90
24408;DHT22;12542;50.924;4.516;2023-02-03T09:38:24;11.70;99.90
24408;DHT22;12542;50.924;4.516;2023-02-03T09:46:25;12.00;99.90
24408;DHT22;12542;50.924;4.516;2023-02-03T09:49:01;12.10;99.90
24408;DHT22;12542;50.924;4.516;2023-02-03T09:51:36;12.00;99.90
24408;DHT22;12542;50.924;4.516;2023-02-03T09:54:18;11.90;99.90
24408;DHT22;12542;50.924;4.516;2023-02-03T09:56:47;12.00;99.90
24408;DHT22;12542;50.924;4.516;2023-02-03T09:59:17;12.10;99.90
24408;DHT22;12542;50.924;4.516;2023-02-03T10:04:37;12.00;99.90
24408;DHT22;12542;50.924;4.516;2023-02-03T10:10:12;12.10;99.90
24408;DHT22;12542;50.924;4.516;2023-02-03T10:17:57;12.50;99.90
24408;DHT22;12542;50.924;4.516;2023-02-03T10:23:05;12.70;99.90
24408;DHT22;12542;50.924;4.516;2023-02-03T10:25:35;12.70;99.90
24408;DHT22;12542;50.924;4.516;2023-02-03T10:28:16;12.60;99.90
24408;DHT22;12542;50.924;4.516;2023-02-03T10:30:52;12.80;99.90
24408;DHT22;12542;50.924;4.516;2023-02-03T10:33:24;12.90;99.90
24408;DHT22;12542;50.924;4.516;2023-02-03T10:35:52;13.00;99.90
24408;DHT22;12542;50.924;4.516;2023-02-03T10:38:56;12.90;99.90
24408;DHT22;12542;50.924;4.516;2023-02-03T10:41:23;12.90;99.90
24408;DHT22;12542;50.924;4.516;2023-02-03T10:43:51;12.80;99.90
24408;DHT22;12542;50.924;4.516;2023-02-03T10:46:37;12.70;99.90
24408;DHT22;12542;50.924;4.516;2023-02-03T10:49:04;12.70;99.90
24408;DHT22;12542;50.924;4.516;2023-02-03T10:54:02;12.50;99.90
24408;DHT22;12542;50.924;4.516;2023-02-03T10:56:35;12.40;99.90
24408;DHT22;12542;50.924;4.516;2023-02-03T10:59:01;12.30;99.90
24408;DHT22;12542;50.924;4.516;2023-02-03T11:01:40;12.40;99.90
24408;DHT22;12542;50.924;4.516;2023-02-03T11:04:25;12.30;99.90
24408;DHT22;12542;50.924;4.516;2023-02-03T11:07:24;12.10;99.90
24408;DHT22;12542;50.924;4.516;2023-02-03T11:09:50;12.20;99.90
24408;DHT22;12542;50.924;4.516;2023-02-03T11:12:18;12.20;99.90
24408;DHT22;12542;50.924;4.516;2023-02-03T11:14:49;12.20;99.90
24408;DHT22;12542;50.924;4.516;2023-02-03T11:19:45;12.10;99.90
24408;DHT22;12542;50.924;4.516;2023-02-03T11:22:13;12.10;99.90
24408;DHT22;12542;50.924;4.516;2023-02-03T11:24:51;12.20;99.90
24408;DHT22;12542;50.924;4.516;2023-02-03T11:27:18;12.00;99.90
24408;DHT22;12542;50.924;4.516;2023-02-03T11:29:49;11.80;99.90
24408;DHT22;12542;50.924;4.516;2023-02-03T11:32:22;12.00;99.90
24408;DHT22;12542;50.924;4.516;2023-02-03T11:35:13;12.10;99.90
24408;DHT22;12542;50.924;4.516;2023-02-03T11:37:40;12.20;99.90
24408;DHT22;12542;50.924;4.516;2023-02-03T11:42:40;12.20;99.90
24408;DHT22;12542;50.924;4.516;2023-02-03T11:47:44;12.10;99.90
24408;DHT22;12542;50.924;4.516;2023-02-03T11:58:05;12.20;99.90
24408;DHT22;12542;50.924;4.516;2023-02-03T12:03:20;12.20;99.90
24408;DHT22;12542;50.924;4.516;2023-02-03T12:06:05;12.20;99.90
24408;DHT22;12542;50.924;4.516;2023-02-03T12:19:35;12.20;99.90
24408;DHT22;12542;50.924;4.516;2023-02-03T12:22:05;12.30;99.90
24408;DHT22;12542;50.924;4.516;2023-02-03T12:25:13;12.30;99.90
24408;DHT22;12542;50.924;4.516;2023-02-03T12:27:47;12.30;99.90
24408;DHT22;12542;50.924;4.516;2023-02-03T12:30:19;12.30;99.90
24408;DHT22;12542;50.924;4.516;2023-02-03T12:32:56;12.20;99.90
24408;DHT22;12542;50.924;4.516;2023-02-03T12:35:44;12.20;99.90
24408;DHT22;12542;50.924;4.516;2023-02-03T12:40:51;12.10;99.90
24408;DHT22;12542;50.924;4.516;2023-02-03T12:46:12;12.30;99.90
24408;DHT22;12542;50.924;4.516;2023-02-03T12:48:55;12.40;99.90
24408;DHT22;12542;50.924;4.516;2023-02-03T12:52:00;12.50;99.90
24408;DHT22;12542;50.924;4.516;2023-02-03T12:57:04;12.60;99.90
24408;DHT22;12542;50.924;4.516;2023-02-03T12:59:33;12.80;99.90
24408;DHT22;12542;50.924;4.516;2023-02-03T13:02:10;12.80;99.90
24408;DHT22;12542;50.924;4.516;2023-02-03T13:05:19;12.90;99.90
24408;DHT22;12542;50.924;4.516;2023-02-03T13:07:56;12.90;99.90
24408;DHT22;12542;50.924;4.516;2023-02-03T13:10:44;13.00;99.90
24408;DHT22;12542;50.924;4.516;2023-02-03T13:13:16;12.90;99.90
24408;DHT22;12542;50.924;4.516;2023-02-03T13:15:48;12.70;99.90
24408;DHT22;12542;50.924;4.516;2023-02-03T13:20:52;12.70;99.90
24408;DHT22;12542;50.924;4.516;2023-02-03T13:23:21;12.80;99.90
24408;DHT22;12542;50.924;4.516;2023-02-03T13:28:45;12.90;99.90
24408;DHT22;12542;50.924;4.516;2023-02-03T13:36:46;13.00;99.90
24408;DHT22;12542;50.924;4.516;2023-02-03T13:42:18;12.90;99.90
24408;DHT22;12542;50.924;4.516;2023-02-03T13:44:48;13.00;99.90
24408;DHT22;12542;50.924;4.516;2023-02-03T13:47:22;13.00;99.90
24408;DHT22;12542;50.924;4.516;2023-02-03T13:49:53;13.00;99.90
24408;DHT22;12542;50.924;4.516;2023-02-03T13:54:54;12.80;99.90
24408;DHT22;12542;50.924;4.516;2023-02-03T13:57:41;12.80;99.90
24408;DHT22;12542;50.924;4.516;2023-02-03T14:03:20;12.70;99.90
24408;DHT22;12542;50.924;4.516;2023-02-03T14:06:03;12.70;99.90
24408;DHT22;12542;50.924;4.516;2023-02-03T14:21:56;12.60;99.90
24408;DHT22;12542;50.924;4.516;2023-02-03T14:24:29;12.60;99.90
24408;DHT22;12542;50.924;4.516;2023-02-03T14:26:57;12.50;99.90
24408;DHT22;12542;50.924;4.516;2023-02-03T14:29:27;12.50;99.90
24408;DHT22;12542;50.924;4.516;2023-02-03T14:32:23;12.50;99.90
24408;DHT22;12542;50.924;4.516;2023-02-03T14:34:49;12.50;99.90
24408;DHT22;12542;50.924;4.516;2023-02-03T14:42:15;12.50;99.90
24408;DHT22;12542;50.924;4.516;2023-02-03T14:44:58;12.60;99.90
24408;DHT22;12542;50.924;4.516;2023-02-03T14:50:12;12.60;99.90
24408;DHT22;12542;50.924;4.516;2023-02-03T14:58:31;12.50;99.90
24408;DHT22;12542;50.924;4.516;2023-02-03T15:00:58;12.40;99.90
24408;DHT22;12542;50.924;4.516;2023-02-03T15:03:26;12.40;99.90
24408;DHT22;12542;50.924;4.516;2023-02-03T15:06:00;12.40;99.90
24408;DHT22;12542;50.924;4.516;2023-02-03T15:08:41;12.40;99.90
24408;DHT22;12542;50.924;4.516;2023-02-03T15:11:30;12.40;99.90
24408;DHT22;12542;50.924;4.516;2023-02-03T15:14:16;12.40;99.90
24408;DHT22;12542;50.924;4.516;2023-02-03T15:16:43;12.40;99.90
24408;DHT22;12542;50.924;4.516;2023-02-03T15:19:15;12.40;99.90
24408;DHT22;12542;50.924;4.516;2023-02-03T15:21:41;12.40;99.90
24408;DHT22;12542;50.924;4.516;2023-02-03T15:24:14;12.30;99.90
24408;DHT22;12542;50.924;4.516;2023-02-03T15:26:54;12.30;99.90
24408;DHT22;12542;50.924;4.516;2023-02-03T15:29:24;12.30;99.90
24408;DHT22;12542;50.924;4.516;2023-02-03T15:32:11;12.30;99.90
24408;DHT22;12542;50.924;4.516;2023-02-03T15:34:50;12.30;99.90
24408;DHT22;12542;50.924;4.516;2023-02-03T15:40:06;12.50;99.90
24408;DHT22;12542;50.924;4.516;2023-02-03T15:42:47;12.60;99.90
24408;DHT22;12542;50.924;4.516;2023-02-03T15:49:00;12.60;99.90
24408;DHT22;12542;50.924;4.516;2023-02-03T15:51:33;12.50;99.90
24408;DHT22;12542;50.924;4.516;2023-02-03T15:56:47;12.30;99.90
24408;DHT22;12542;50.924;4.516;2023-02-03T15:59:35;12.20;99.90
24408;DHT22;12542;50.924;4.516;2023-02-03T16:02:16;12.20;99.90
24408;DHT22;12542;50.924;4.516;2023-02-03T16:04:43;12.20;99.90
24408;DHT22;12542;50.924;4.516;2023-02-03T16:07:20;12.20;99.90
24408;DHT22;12542;50.924;4.516;2023-02-03T16:09:47;12.40;99.90
24408;DHT22;12542;50.924;4.516;2023-02-03T16:12:31;12.30;99.90
24408;DHT22;12542;50.924;4.516;2023-02-03T16:15:01;12.30;99.90
24408;DHT22;12542;50.924;4.516;2023-02-03T16:22:45;12.40;99.90
24408;DHT22;12542;50.924;4.516;2023-02-03T16:27:39;12.10;99.90
24408;DHT22;12542;50.924;4.516;2023-02-03T16:33:04;12.20;99.90
24408;DHT22;12542;50.924;4.516;2023-02-03T16:35:58;12.20;99.90
24408;DHT22;12542;50.924;4.516;2023-02-03T16:38:48;12.20;99.90
24408;DHT22;12542;50.924;4.516;2023-02-03T16:41:32;12.20;99.90
24408;DHT22;12542;50.924;4.516;2023-02-03T16:44:17;12.10;99.90
24408;DHT22;12542;50.924;4.516;2023-02-03T16:47:04;11.90;99.90
24408;DHT22;12542;50.924;4.516;2023-02-03T16:49:58;12.00;99.90
24408;DHT22;12542;50.924;4.516;2023-02-03T16:52:42;11.90;99.90
24408;DHT22;12542;50.924;4.516;2023-02-03T16:55:09;11.70;99.90
24408;DHT22;12542;50.924;4.516;2023-02-03T16:57:35;11.70;99.90
24408;DHT22;12542;50.924;4.516;2023-02-03T17:00:01;11.60;99.90
24408;DHT22;12542;50.924;4.516;2023-02-03T17:02:30;11.60;99.90
24408;DHT22;12542;50.924;4.516;2023-02-03T17:04:55;11.60;99.90
24408;DHT22;12542;50.924;4.516;2023-02-03T17:07:21;11.70;99.90
24408;DHT22;12542;50.924;4.516;2023-02-03T17:09:47;11.70;99.90
24408;DHT22;12542;50.924;4.516;2023-02-03T17:12:12;11.60;99.90
24408;DHT22;12542;50.924;4.516;2023-02-03T17:14:38;11.80;99.90
24408;DHT22;12542;50.924;4.516;2023-02-03T17:17:04;11.70;99.90
24408;DHT22;12542;50.924;4.516;2023-02-03T17:19:29;11.70;99.90
24408;DHT22;12542;50.924;4.516;2023-02-03T17:21:55;11.60;99.90
24408;DHT22;12542;50.924;4.516;2023-02-03T17:24:21;11.60;99.90
24408;DHT22;12542;50.924;4.516;2023-02-03T17:26:46;11.50;99.90
24408;DHT22;12542;50.924;4.516;2023-02-03T17:29:13;11.60;99.90
24408;DHT22;12542;50.924;4.516;2023-02-03T17:31:38;11.60;99.90
24408;DHT22;12542;50.924;4.516;2023-02-03T17:34:04;11.60;99.90
24408;DHT22;12542;50.924;4.516;2023-02-03T17:36:30;11.60;99.90
24408;DHT22;12542;50.924;4.516;2023-02-03T17:38:56;11.50;99.90
24408;DHT22;12542;50.924;4.516;2023-02-03T17:41:23;11.40;99.90
24408;DHT22;12542;50.924;4.516;2023-02-03T17:43:50;11.40;99.90
24408;DHT22;12542;50.924;4.516;2023-02-03T17:46:19;11.30;99.90
24408;DHT22;12542;50.924;4.516;2023-02-03T17:48:45;11.40;99.90
24408;DHT22;12542;50.924;4.516;2023-02-03T17:51:20;11.40;99.90
24408;DHT22;12542;50.924;4.516;2023-02-03T17:53:49;11.40;99.90
24408;DHT22;12542;50.924;4.516;2023-02-03T17:56:20;11.50;99.90
24408;DHT22;12542;50.924;4.516;2023-02-03T17:58:53;11.60;99.90
24408;DHT22;12542;50.924;4.516;2023-02-03T18:01:19;11.60;99.90
24408;DHT22;12542;50.924;4.516;2023-02-03T18:06:12;11.60;99.90
24408;DHT22;12542;50.924;4.516;2023-02-03T18:08:39;11.60;99.90
24408;DHT22;12542;50.924;4.516;2023-02-03T18:11:05;11.50;99.90
24408;DHT22;12542;50.924;4.516;2023-02-03T18:13:31;11.40;99.90
24408;DHT22;12542;50.924;4.516;2023-02-03T18:16:01;11.40;99.90
24408;DHT22;12542;50.924;4.516;2023-02-03T18:18:27;11.40;99.90
24408;DHT22;12542;50.924;4.516;2023-02-03T18:20:53;11.60;99.90
24408;DHT22;12542;50.924;4.516;2023-02-03T18:23:19;11.60;99.90
24408;DHT22;12542;50.924;4.516;2023-02-03T18:25:51;11.70;99.90
24408;DHT22;12542;50.924;4.516;2023-02-03T18:28:17;11.70;99.90
24408;DHT22;12542;50.924;4.516;2023-02-03T18:30:43;11.70;99.90
24408;DHT22;12542;50.924;4.516;2023-02-03T18:33:09;11.70;99.90
24408;DHT22;12542;50.924;4.516;2023-02-03T18:35:34;11.80;99.90
24408;DHT22;12542;50.924;4.516;2023-02-03T18:38:00;11.70;99.90